sensor_id;sensor_type;location;lat;lon;timestamp;pressure;altitude;pressure_sealevel;temperature;humidity
38630;BME280;24384;51.988;4.644;2023-05-09T00:02:12;101812.72;;;14.67;94.98
38630;BME280;24384;51.988;4.644;2023-05-09T00:04:37;101814.53;;;14.65;94.15
38630;BME280;24384;51.988;4.644;2023-05-09T00:07:02;101808.47;;;14.62;94.34
38630;BME280;24384;51.988;4.644;2023-05-09T00:09:29;101815.88;;;14.52;93.75
38630;BME280;24384;51.988;4.644;2023-05-09T00:11:54;101804.03;;;14.62;93.60
38630;BME280;24384;51.988;4.644;2023-05-09T00:14:19;101812.44;;;14.48;92.25
38630;BME280;24384;51.988;4.644;2023-05-09T00:16:45;101810.22;;;14.63;92.24
38630;BME280;24384;51.988;4.644;2023-05-09T00:19:10;101810.97;;;14.66;91.66
38630;BME280;24384;51.988;4.644;2023-05-09T00:21:37;101809.63;;;14.80;91.41
38630;BME280;24384;51.988;4.644;2023-05-09T00:24:02;101804.75;;;14.93;90.73
38630;BME280;24384;51.988;4.644;2023-05-09T00:26:27;101793.22;;;14.94;90.52
38630;BME280;24384;51.988;4.644;2023-05-09T00:28:52;101796.88;;;14.90;89.80
38630;BME280;24384;51.988;4.644;2023-05-09T00:31:19;101797.75;;;14.90;89.74
38630;BME280;24384;51.988;4.644;2023-05-09T00:33:44;101789.81;;;14.89;89.93
38630;BME280;24384;51.988;4.644;2023-05-09T00:36:11;101789.94;;;14.85;89.42
38630;BME280;24384;51.988;4.644;2023-05-09T00:38:36;101790.03;;;14.82;89.26
38630;BME280;24384;51.988;4.644;2023-05-09T00:41:02;101783.03;;;14.81;88.48
38630;BME280;24384;51.988;4.644;2023-05-09T00:43:28;101783.81;;;14.83;88.98
38630;BME280;24384;51.988;4.644;2023-05-09T00:45:53;101770.59;;;14.82;89.27
38630;BME280;24384;51.988;4.644;2023-05-09T00:48:20;101776.44;;;14.92;88.60
38630;BME280;24384;51.988;4.644;2023-05-09T00:50:45;101771.22;;;14.89;88.81
38630;BME280;24384;51.988;4.644;2023-05-09T00:53:18;101772.00;;;14.92;88.71
38630;BME280;24384;51.988;4.644;2023-05-09T00:55:45;101764.03;;;14.92;88.35
38630;BME280;24384;51.988;4.644;2023-05-09T00:58:12;101764.50;;;14.80;88.42
38630;BME280;24384;51.988;4.644;2023-05-09T01:00:37;101758.91;;;14.62;88.53
38630;BME280;24384;51.988;4.644;2023-05-09T01:03:04;101750.47;;;14.49;88.85
38630;BME280;24384;51.988;4.644;2023-05-09T01:05:50;101753.72;;;14.58;88.95
38630;BME280;24384;51.988;4.644;2023-05-09T01:11:07;101743.03;;;14.59;89.44
38630;BME280;24384;51.988;4.644;2023-05-09T01:17:25;101733.84;;;14.44;90.07
38630;BME280;24384;51.988;4.644;2023-05-09T01:22:17;101728.13;;;14.30;91.27
38630;BME280;24384;51.988;4.644;2023-05-09T01:25:18;101725.47;;;14.05;92.94
38630;BME280;24384;51.988;4.644;2023-05-09T01:27:58;101719.00;;;14.13;92.73
38630;BME280;24384;51.988;4.644;2023-05-09T01:30:30;101719.03;;;14.12;93.22
38630;BME280;24384;51.988;4.644;2023-05-09T01:32:59;101702.28;;;14.10;92.56
38630;BME280;24384;51.988;4.644;2023-05-09T01:35:25;101704.13;;;14.08;92.85
38630;BME280;24384;51.988;4.644;2023-05-09T01:37:53;101702.03;;;14.18;92.47
38630;BME280;24384;51.988;4.644;2023-05-09T01:40:21;101699.53;;;14.13;92.77
38630;BME280;24384;51.988;4.644;2023-05-09T01:42:55;101688.81;;;14.16;92.52
38630;BME280;24384;51.988;4.644;2023-05-09T01:45:24;101696.63;;;14.21;92.98
38630;BME280;24384;51.988;4.644;2023-05-09T01:47:52;101697.41;;;14.24;92.24
38630;BME280;24384;51.988;4.644;2023-05-09T01:50:19;101693.25;;;14.41;91.58
38630;BME280;24384;51.988;4.644;2023-05-09T01:52:47;101690.13;;;14.29;91.17
38630;BME280;24384;51.988;4.644;2023-05-09T01:55:15;101684.28;;;14.45;91.20
38630;BME280;24384;51.988;4.644;2023-05-09T01:57:43;101686.88;;;14.46;90.61
38630;BME280;24384;51.988;4.644;2023-05-09T02:00:10;101684.00;;;14.53;90.63
38630;BME280;24384;51.988;4.644;2023-05-09T02:02:39;101689.53;;;14.46;90.54
38630;BME280;24384;51.988;4.644;2023-05-09T02:05:07;101676.59;;;14.37;90.19
38630;BME280;24384;51.988;4.644;2023-05-09T02:07:33;101677.19;;;14.45;89.97
38630;BME280;24384;51.988;4.644;2023-05-09T02:10:01;101671.97;;;14.42;89.97
38630;BME280;24384;51.988;4.644;2023-05-09T02:12:27;101672.25;;;14.35;90.59
38630;BME280;24384;51.988;4.644;2023-05-09T02:14:52;101666.38;;;14.26;91.00
38630;BME280;24384;51.988;4.644;2023-05-09T02:17:18;101667.88;;;14.33;90.69
38630;BME280;24384;51.988;4.644;2023-05-09T02:19:43;101671.66;;;14.26;90.91
38630;BME280;24384;51.988;4.644;2023-05-09T02:22:11;101662.69;;;14.30;90.81
38630;BME280;24384;51.988;4.644;2023-05-09T02:24:37;101665.56;;;14.24;90.77
38630;BME280;24384;51.988;4.644;2023-05-09T02:27:04;101655.81;;;14.25;91.34
38630;BME280;24384;51.988;4.644;2023-05-09T02:29:34;101660.38;;;14.21;91.54
38630;BME280;24384;51.988;4.644;2023-05-09T02:32:15;101656.94;;;14.18;91.71
38630;BME280;24384;51.988;4.644;2023-05-09T02:34:41;101649.41;;;14.05;92.55
38630;BME280;24384;51.988;4.644;2023-05-09T02:37:09;101652.09;;;14.04;93.07
38630;BME280;24384;51.988;4.644;2023-05-09T02:39:34;101647.84;;;14.00;93.14
38630;BME280;24384;51.988;4.644;2023-05-09T02:42:11;101645.16;;;14.01;92.75
38630;BME280;24384;51.988;4.644;2023-05-09T02:44:37;101641.91;;;13.91;93.61
38630;BME280;24384;51.988;4.644;2023-05-09T02:47:08;101642.88;;;13.90;93.74
38630;BME280;24384;51.988;4.644;2023-05-09T02:49:35;101640.06;;;13.95;93.92
38630;BME280;24384;51.988;4.644;2023-05-09T02:52:00;101641.22;;;13.86;93.71
38630;BME280;24384;51.988;4.644;2023-05-09T02:54:25;101637.50;;;13.92;92.75
38630;BME280;24384;51.988;4.644;2023-05-09T02:56:51;101627.75;;;13.92;93.64
38630;BME280;24384;51.988;4.644;2023-05-09T02:59:17;101627.88;;;13.89;93.84
38630;BME280;24384;51.988;4.644;2023-05-09T03:01:42;101626.31;;;13.82;94.64
38630;BME280;24384;51.988;4.644;2023-05-09T03:04:13;101618.69;;;13.73;95.98
38630;BME280;24384;51.988;4.644;2023-05-09T03:06:38;101612.69;;;13.68;96.04
38630;BME280;24384;51.988;4.644;2023-05-09T03:09:05;101604.72;;;13.68;95.99
38630;BME280;24384;51.988;4.644;2023-05-09T03:11:31;101598.53;;;13.69;96.42
38630;BME280;24384;51.988;4.644;2023-05-09T03:13:56;101599.59;;;13.63;96.40
38630;BME280;24384;51.988;4.644;2023-05-09T03:16:21;101600.34;;;13.67;97.27
38630;BME280;24384;51.988;4.644;2023-05-09T03:18:46;101603.81;;;13.69;97.73
38630;BME280;24384;51.988;4.644;2023-05-09T03:21:12;101603.00;;;13.67;97.48
38630;BME280;24384;51.988;4.644;2023-05-09T03:23:38;101601.78;;;13.77;97.50
38630;BME280;24384;51.988;4.644;2023-05-09T03:26:03;101601.88;;;13.74;97.30
38630;BME280;24384;51.988;4.644;2023-05-09T03:28:30;101595.75;;;13.72;97.44
38630;BME280;24384;51.988;4.644;2023-05-09T03:30:55;101600.97;;;13.75;97.07
38630;BME280;24384;51.988;4.644;2023-05-09T03:33:20;101602.31;;;13.87;97.23
38630;BME280;24384;51.988;4.644;2023-05-09T03:35:46;101597.72;;;13.92;96.14
38630;BME280;24384;51.988;4.644;2023-05-09T03:38:11;101592.75;;;14.08;96.31
38630;BME280;24384;51.988;4.644;2023-05-09T03:40:37;101594.38;;;14.12;95.81
38630;BME280;24384;51.988;4.644;2023-05-09T03:43:02;101588.41;;;14.05;95.66
38630;BME280;24384;51.988;4.644;2023-05-09T03:45:27;101582.72;;;13.91;96.54
38630;BME280;24384;51.988;4.644;2023-05-09T03:47:54;101568.81;;;14.09;96.07
38630;BME280;24384;51.988;4.644;2023-05-09T03:50:19;101569.66;;;14.10;95.54
38630;BME280;24384;51.988;4.644;2023-05-09T03:52:44;101559.72;;;14.17;95.86
38630;BME280;24384;51.988;4.644;2023-05-09T03:55:10;101561.19;;;14.24;95.29
38630;BME280;24384;51.988;4.644;2023-05-09T03:57:36;101560.19;;;14.28;95.46
38630;BME280;24384;51.988;4.644;2023-05-09T04:00:02;101568.91;;;14.06;95.57
38630;BME280;24384;51.988;4.644;2023-05-09T04:02:29;101572.88;;;13.94;96.99
38630;BME280;24384;51.988;4.644;2023-05-09T04:04:56;101558.22;;;13.84;97.83
38630;BME280;24384;51.988;4.644;2023-05-09T04:07:22;101559.13;;;13.83;98.18
38630;BME280;24384;51.988;4.644;2023-05-09T04:09:47;101547.41;;;13.90;97.65
38630;BME280;24384;51.988;4.644;2023-05-09T04:12:14;101550.06;;;13.90;97.83
38630;BME280;24384;51.988;4.644;2023-05-09T04:14:39;101553.03;;;13.81;97.86
38630;BME280;24384;51.988;4.644;2023-05-09T04:17:05;101543.13;;;13.61;98.49
38630;BME280;24384;51.988;4.644;2023-05-09T04:19:30;101541.00;;;13.71;98.74
38630;BME280;24384;51.988;4.644;2023-05-09T04:21:55;101544.56;;;13.70;98.90
38630;BME280;24384;51.988;4.644;2023-05-09T04:24:21;101544.47;;;13.73;98.60
38630;BME280;24384;51.988;4.644;2023-05-09T04:26:46;101543.66;;;13.71;99.02
38630;BME280;24384;51.988;4.644;2023-05-09T04:29:12;101533.91;;;13.96;97.80
38630;BME280;24384;51.988;4.644;2023-05-09T04:31:37;101543.13;;;13.86;98.00
38630;BME280;24384;51.988;4.644;2023-05-09T04:34:02;101546.00;;;13.80;97.98
38630;BME280;24384;51.988;4.644;2023-05-09T04:36:28;101542.47;;;13.79;98.25
38630;BME280;24384;51.988;4.644;2023-05-09T04:38:53;101542.13;;;13.64;98.61
38630;BME280;24384;51.988;4.644;2023-05-09T04:41:18;101536.72;;;13.67;98.85
38630;BME280;24384;51.988;4.644;2023-05-09T04:43:43;101538.34;;;13.71;98.64
38630;BME280;24384;51.988;4.644;2023-05-09T04:46:09;101541.00;;;13.71;97.98
38630;BME280;24384;51.988;4.644;2023-05-09T04:48:35;101531.22;;;13.73;98.08
38630;BME280;24384;51.988;4.644;2023-05-09T04:51:00;101522.13;;;13.80;98.13
38630;BME280;24384;51.988;4.644;2023-05-09T04:53:26;101518.13;;;13.68;97.72
38630;BME280;24384;51.988;4.644;2023-05-09T04:55:52;101501.03;;;13.77;98.42
38630;BME280;24384;51.988;4.644;2023-05-09T04:58:18;101504.88;;;13.93;97.49
38630;BME280;24384;51.988;4.644;2023-05-09T05:00:45;101493.88;;;13.79;97.67
38630;BME280;24384;51.988;4.644;2023-05-09T05:03:11;101498.38;;;13.77;97.12
38630;BME280;24384;51.988;4.644;2023-05-09T05:05:36;101489.88;;;13.92;96.68
38630;BME280;24384;51.988;4.644;2023-05-09T05:08:01;101490.56;;;13.97;96.75
38630;BME280;24384;51.988;4.644;2023-05-09T05:10:26;101488.13;;;13.91;96.80
38630;BME280;24384;51.988;4.644;2023-05-09T05:12:52;101487.78;;;14.01;97.13
38630;BME280;24384;51.988;4.644;2023-05-09T05:15:17;101477.78;;;14.09;96.73
38630;BME280;24384;51.988;4.644;2023-05-09T05:17:43;101479.25;;;13.92;97.01
38630;BME280;24384;51.988;4.644;2023-05-09T05:20:09;101468.09;;;14.08;96.77
38630;BME280;24384;51.988;4.644;2023-05-09T05:22:34;101468.41;;;13.99;97.41
38630;BME280;24384;51.988;4.644;2023-05-09T05:25:00;101470.06;;;14.03;97.12
38630;BME280;24384;51.988;4.644;2023-05-09T05:27:27;101471.47;;;13.88;97.19
38630;BME280;24384;51.988;4.644;2023-05-09T05:29:52;101477.00;;;13.82;97.58
38630;BME280;24384;51.988;4.644;2023-05-09T05:32:19;101471.59;;;13.85;98.21
38630;BME280;24384;51.988;4.644;2023-05-09T05:34:44;101474.28;;;13.83;98.22
38630;BME280;24384;51.988;4.644;2023-05-09T05:37:11;101469.22;;;13.77;98.15
38630;BME280;24384;51.988;4.644;2023-05-09T05:39:36;101470.72;;;13.84;98.32
38630;BME280;24384;51.988;4.644;2023-05-09T05:42:02;101475.91;;;13.87;98.54
38630;BME280;24384;51.988;4.644;2023-05-09T05:44:28;101470.00;;;13.79;98.45
38630;BME280;24384;51.988;4.644;2023-05-09T05:46:53;101472.25;;;13.66;99.11
38630;BME280;24384;51.988;4.644;2023-05-09T05:49:18;101467.22;;;13.58;99.86
38630;BME280;24384;51.988;4.644;2023-05-09T05:51:43;101476.81;;;13.63;100.00
38630;BME280;24384;51.988;4.644;2023-05-09T05:54:10;101472.53;;;13.58;100.00
38630;BME280;24384;51.988;4.644;2023-05-09T05:56:36;101471.34;;;13.67;100.00
38630;BME280;24384;51.988;4.644;2023-05-09T05:59:02;101472.53;;;13.58;100.00
38630;BME280;24384;51.988;4.644;2023-05-09T06:01:27;101468.09;;;13.59;100.00
38630;BME280;24384;51.988;4.644;2023-05-09T06:03:52;101458.16;;;13.66;100.00
38630;BME280;24384;51.988;4.644;2023-05-09T06:06:21;101460.69;;;13.69;100.00
38630;BME280;24384;51.988;4.644;2023-05-09T06:08:47;101456.25;;;13.69;100.00
38630;BME280;24384;51.988;4.644;2023-05-09T06:11:14;101456.94;;;13.74;100.00
38630;BME280;24384;51.988;4.644;2023-05-09T06:13:40;101457.22;;;13.67;99.80
38630;BME280;24384;51.988;4.644;2023-05-09T06:16:06;101446.72;;;13.64;100.00
38630;BME280;24384;51.988;4.644;2023-05-09T06:18:32;101444.94;;;13.64;100.00
38630;BME280;24384;51.988;4.644;2023-05-09T06:20:59;101437.75;;;13.68;100.00
38630;BME280;24384;51.988;4.644;2023-05-09T06:23:24;101445.81;;;13.65;100.00
38630;BME280;24384;51.988;4.644;2023-05-09T06:25:50;101436.00;;;13.67;99.84
38630;BME280;24384;51.988;4.644;2023-05-09T06:28:15;101447.16;;;13.76;100.00
38630;BME280;24384;51.988;4.644;2023-05-09T06:30:40;101438.59;;;13.68;100.00
38630;BME280;24384;51.988;4.644;2023-05-09T06:33:05;101440.63;;;13.61;100.00
38630;BME280;24384;51.988;4.644;2023-05-09T06:35:31;101437.69;;;13.69;99.89
38630;BME280;24384;51.988;4.644;2023-05-09T06:37:56;101434.13;;;13.70;99.68
38630;BME280;24384;51.988;4.644;2023-05-09T06:40:21;101423.47;;;13.72;99.39
38630;BME280;24384;51.988;4.644;2023-05-09T06:42:46;101428.22;;;13.62;99.05
38630;BME280;24384;51.988;4.644;2023-05-09T06:45:12;101430.59;;;13.70;99.35
38630;BME280;24384;51.988;4.644;2023-05-09T06:47:37;101421.56;;;13.75;100.00
38630;BME280;24384;51.988;4.644;2023-05-09T06:50:02;101419.81;;;13.74;99.78
38630;BME280;24384;51.988;4.644;2023-05-09T06:52:28;101417.09;;;13.76;100.00
38630;BME280;24384;51.988;4.644;2023-05-09T06:54:53;101418.84;;;13.77;99.07
38630;BME280;24384;51.988;4.644;2023-05-09T06:57:18;101409.69;;;13.86;99.48
38630;BME280;24384;51.988;4.644;2023-05-09T06:59:44;101410.31;;;13.92;98.60
38630;BME280;24384;51.988;4.644;2023-05-09T07:02:09;101406.94;;;13.89;99.21
38630;BME280;24384;51.988;4.644;2023-05-09T07:04:34;101404.91;;;13.95;99.42
38630;BME280;24384;51.988;4.644;2023-05-09T07:07:00;101401.97;;;13.79;98.92
38630;BME280;24384;51.988;4.644;2023-05-09T07:09:25;101395.38;;;13.90;99.42
38630;BME280;24384;51.988;4.644;2023-05-09T07:11:55;101395.72;;;13.81;100.00
38630;BME280;24384;51.988;4.644;2023-05-09T07:14:21;101385.34;;;13.74;99.85
38630;BME280;24384;51.988;4.644;2023-05-09T07:16:46;101380.81;;;13.78;99.88
38630;BME280;24384;51.988;4.644;2023-05-09T07:19:11;101377.75;;;13.65;100.00
38630;BME280;24384;51.988;4.644;2023-05-09T07:21:36;101374.25;;;13.65;100.00
38630;BME280;24384;51.988;4.644;2023-05-09T07:24:02;101373.28;;;13.67;100.00
38630;BME280;24384;51.988;4.644;2023-05-09T07:26:27;101368.38;;;13.56;100.00
38630;BME280;24384;51.988;4.644;2023-05-09T07:28:53;101361.91;;;13.64;100.00
38630;BME280;24384;51.988;4.644;2023-05-09T07:31:18;101362.63;;;13.69;100.00
38630;BME280;24384;51.988;4.644;2023-05-09T07:33:43;101364.31;;;13.70;100.00
38630;BME280;24384;51.988;4.644;2023-05-09T07:36:08;101359.63;;;13.78;100.00
38630;BME280;24384;51.988;4.644;2023-05-09T07:38:38;101362.50;;;13.72;100.00
38630;BME280;24384;51.988;4.644;2023-05-09T07:41:04;101352.25;;;13.63;100.00
38630;BME280;24384;51.988;4.644;2023-05-09T07:43:30;101346.28;;;13.56;100.00
38630;BME280;24384;51.988;4.644;2023-05-09T07:45:55;101345.31;;;13.58;100.00
38630;BME280;24384;51.988;4.644;2023-05-09T07:48:20;101342.44;;;13.65;100.00
38630;BME280;24384;51.988;4.644;2023-05-09T07:50:46;101335.06;;;13.73;100.00
38630;BME280;24384;51.988;4.644;2023-05-09T07:53:11;101336.06;;;13.70;100.00
38630;BME280;24384;51.988;4.644;2023-05-09T07:55:36;101334.81;;;13.79;100.00
38630;BME280;24384;51.988;4.644;2023-05-09T07:58:01;101340.66;;;13.89;100.00
38630;BME280;24384;51.988;4.644;2023-05-09T08:00:27;101339.44;;;13.74;100.00
38630;BME280;24384;51.988;4.644;2023-05-09T08:02:52;101320.72;;;13.78;100.00
38630;BME280;24384;51.988;4.644;2023-05-09T08:05:18;101324.31;;;13.76;100.00
38630;BME280;24384;51.988;4.644;2023-05-09T08:07:43;101310.94;;;13.79;100.00
38630;BME280;24384;51.988;4.644;2023-05-09T08:10:09;101325.31;;;13.73;100.00
38630;BME280;24384;51.988;4.644;2023-05-09T08:12:34;101317.19;;;13.54;100.00
38630;BME280;24384;51.988;4.644;2023-05-09T08:14:59;101309.13;;;13.57;100.00
38630;BME280;24384;51.988;4.644;2023-05-09T08:17:25;101310.88;;;13.58;100.00
38630;BME280;24384;51.988;4.644;2023-05-09T08:19:50;101306.31;;;13.62;100.00
38630;BME280;24384;51.988;4.644;2023-05-09T08:22:18;101304.19;;;13.72;100.00
38630;BME280;24384;51.988;4.644;2023-05-09T08:24:45;101306.25;;;13.64;100.00
38630;BME280;24384;51.988;4.644;2023-05-09T08:27:11;101302.13;;;13.56;100.00
38630;BME280;24384;51.988;4.644;2023-05-09T08:29:38;101287.69;;;13.64;100.00
38630;BME280;24384;51.988;4.644;2023-05-09T08:32:04;101290.41;;;13.62;100.00
38630;BME280;24384;51.988;4.644;2023-05-09T08:34:29;101284.25;;;13.61;100.00
38630;BME280;24384;51.988;4.644;2023-05-09T08:36:58;101281.19;;;13.72;100.00
38630;BME280;24384;51.988;4.644;2023-05-09T08:39:27;101285.88;;;13.66;100.00
38630;BME280;24384;51.988;4.644;2023-05-09T08:41:57;101277.91;;;13.66;100.00
38630;BME280;24384;51.988;4.644;2023-05-09T08:44:22;101280.38;;;13.47;100.00
38630;BME280;24384;51.988;4.644;2023-05-09T08:46:51;101277.28;;;13.59;100.00
38630;BME280;24384;51.988;4.644;2023-05-09T08:49:19;101272.78;;;13.61;100.00
38630;BME280;24384;51.988;4.644;2023-05-09T08:51:46;101266.31;;;13.68;100.00
38630;BME280;24384;51.988;4.644;2023-05-09T08:54:12;101267.94;;;13.72;100.00
38630;BME280;24384;51.988;4.644;2023-05-09T08:56:38;101266.78;;;13.56;100.00
38630;BME280;24384;51.988;4.644;2023-05-09T08:59:04;101263.84;;;13.64;100.00
38630;BME280;24384;51.988;4.644;2023-05-09T09:01:33;101279.06;;;13.58;100.00
38630;BME280;24384;51.988;4.644;2023-05-09T09:04:01;101265.25;;;13.50;100.00
38630;BME280;24384;51.988;4.644;2023-05-09T09:06:32;101261.44;;;13.57;100.00
38630;BME280;24384;51.988;4.644;2023-05-09T09:08:58;101262.13;;;13.63;100.00
38630;BME280;24384;51.988;4.644;2023-05-09T09:11:27;101265.16;;;13.53;100.00
38630;BME280;24384;51.988;4.644;2023-05-09T09:13:53;101262.97;;;13.63;100.00
38630;BME280;24384;51.988;4.644;2023-05-09T09:16:21;101255.16;;;13.60;100.00
38630;BME280;24384;51.988;4.644;2023-05-09T09:18:47;101249.69;;;13.65;100.00
38630;BME280;24384;51.988;4.644;2023-05-09T09:21:17;101252.69;;;13.55;100.00
38630;BME280;24384;51.988;4.644;2023-05-09T09:23:44;101246.34;;;13.59;100.00
38630;BME280;24384;51.988;4.644;2023-05-09T09:26:11;101240.94;;;13.63;100.00
38630;BME280;24384;51.988;4.644;2023-05-09T09:28:37;101238.41;;;13.59;100.00
38630;BME280;24384;51.988;4.644;2023-05-09T09:31:20;101237.78;;;13.75;100.00
38630;BME280;24384;51.988;4.644;2023-05-09T09:33:47;101240.75;;;13.67;100.00
38630;BME280;24384;51.988;4.644;2023-05-09T09:36:12;101239.81;;;13.68;100.00
38630;BME280;24384;51.988;4.644;2023-05-09T09:38:42;101241.78;;;13.63;100.00
38630;BME280;24384;51.988;4.644;2023-05-09T09:41:11;101235.63;;;13.63;100.00
38630;BME280;24384;51.988;4.644;2023-05-09T09:43:37;101246.91;;;13.68;100.00
38630;BME280;24384;51.988;4.644;2023-05-09T09:46:03;101234.69;;;13.64;100.00
38630;BME280;24384;51.988;4.644;2023-05-09T09:48:33;101240.69;;;13.69;100.00
38630;BME280;24384;51.988;4.644;2023-05-09T09:51:08;101237.34;;;13.64;100.00
38630;BME280;24384;51.988;4.644;2023-05-09T09:53:39;101231.53;;;13.76;100.00
38630;BME280;24384;51.988;4.644;2023-05-09T09:56:05;101238.03;;;13.69;100.00
38630;BME280;24384;51.988;4.644;2023-05-09T09:58:30;101224.84;;;13.67;100.00
38630;BME280;24384;51.988;4.644;2023-05-09T10:01:09;101225.69;;;13.68;100.00
38630;BME280;24384;51.988;4.644;2023-05-09T10:03:39;101220.41;;;13.68;100.00
38630;BME280;24384;51.988;4.644;2023-05-09T10:06:12;101223.00;;;13.69;100.00
38630;BME280;24384;51.988;4.644;2023-05-09T10:08:38;101219.31;;;13.73;100.00
38630;BME280;24384;51.988;4.644;2023-05-09T10:11:04;101221.72;;;13.79;100.00
38630;BME280;24384;51.988;4.644;2023-05-09T10:13:30;101211.88;;;13.82;100.00
38630;BME280;24384;51.988;4.644;2023-05-09T10:15:56;101221.53;;;13.84;100.00
38630;BME280;24384;51.988;4.644;2023-05-09T10:18:28;101208.81;;;13.92;100.00
38630;BME280;24384;51.988;4.644;2023-05-09T10:20:56;101196.00;;;14.02;100.00
38630;BME280;24384;51.988;4.644;2023-05-09T10:23:25;101212.13;;;13.97;100.00
38630;BME280;24384;51.988;4.644;2023-05-09T10:26:03;101201.63;;;13.94;100.00
38630;BME280;24384;51.988;4.644;2023-05-09T10:28:32;101213.19;;;13.93;100.00
38630;BME280;24384;51.988;4.644;2023-05-09T10:31:26;101205.34;;;13.90;100.00
38630;BME280;24384;51.988;4.644;2023-05-09T10:33:52;101194.84;;;14.09;100.00
38630;BME280;24384;51.988;4.644;2023-05-09T10:36:20;101197.69;;;14.05;100.00
38630;BME280;24384;51.988;4.644;2023-05-09T10:38:47;101206.94;;;14.17;100.00
38630;BME280;24384;51.988;4.644;2023-05-09T10:41:15;101189.41;;;14.12;100.00
38630;BME280;24384;51.988;4.644;2023-05-09T10:43:40;101187.78;;;14.08;100.00
38630;BME280;24384;51.988;4.644;2023-05-09T10:46:07;101185.28;;;14.05;100.00
38630;BME280;24384;51.988;4.644;2023-05-09T10:48:33;101185.09;;;14.10;100.00
38630;BME280;24384;51.988;4.644;2023-05-09T10:51:00;101178.06;;;14.09;100.00
38630;BME280;24384;51.988;4.644;2023-05-09T10:53:49;101169.03;;;14.13;100.00
38630;BME280;24384;51.988;4.644;2023-05-09T10:56:22;101168.50;;;14.05;100.00
38630;BME280;24384;51.988;4.644;2023-05-09T10:58:48;101171.38;;;14.21;100.00
38630;BME280;24384;51.988;4.644;2023-05-09T11:01:13;101166.25;;;14.16;100.00
38630;BME280;24384;51.988;4.644;2023-05-09T11:03:55;101171.50;;;14.18;100.00
38630;BME280;24384;51.988;4.644;2023-05-09T11:06:44;101163.34;;;14.22;100.00
38630;BME280;24384;51.988;4.644;2023-05-09T11:14:41;101159.44;;;14.10;100.00
38630;BME280;24384;51.988;4.644;2023-05-09T11:17:09;101148.53;;;13.96;100.00
38630;BME280;24384;51.988;4.644;2023-05-09T11:22:21;101144.50;;;14.08;100.00
38630;BME280;24384;51.988;4.644;2023-05-09T11:24:51;101142.50;;;14.13;100.00
38630;BME280;24384;51.988;4.644;2023-05-09T11:27:22;101130.91;;;14.15;100.00
38630;BME280;24384;51.988;4.644;2023-05-09T11:29:55;101140.69;;;14.15;100.00
38630;BME280;24384;51.988;4.644;2023-05-09T11:32:21;101131.19;;;14.09;100.00
38630;BME280;24384;51.988;4.644;2023-05-09T11:34:50;101137.47;;;14.07;100.00
38630;BME280;24384;51.988;4.644;2023-05-09T11:37:16;101146.63;;;14.00;100.00
38630;BME280;24384;51.988;4.644;2023-05-09T11:39:59;101132.03;;;14.10;100.00
38630;BME280;24384;51.988;4.644;2023-05-09T11:42:28;101131.44;;;14.03;100.00
38630;BME280;24384;51.988;4.644;2023-05-09T11:44:56;101132.84;;;14.12;100.00
38630;BME280;24384;51.988;4.644;2023-05-09T11:47:21;101129.44;;;14.08;100.00
38630;BME280;24384;51.988;4.644;2023-05-09T11:49:47;101129.38;;;14.10;100.00
38630;BME280;24384;51.988;4.644;2023-05-09T11:52:14;101125.22;;;14.25;100.00
38630;BME280;24384;51.988;4.644;2023-05-09T11:54:39;101128.00;;;14.22;100.00
38630;BME280;24384;51.988;4.644;2023-05-09T11:57:05;101116.28;;;14.27;100.00
38630;BME280;24384;51.988;4.644;2023-05-09T11:59:35;101110.56;;;14.16;100.00
38630;BME280;24384;51.988;4.644;2023-05-09T12:02:05;101109.78;;;14.14;100.00
38630;BME280;24384;51.988;4.644;2023-05-09T12:04:31;101107.91;;;14.16;100.00
38630;BME280;24384;51.988;4.644;2023-05-09T12:06:58;101106.41;;;14.10;100.00
38630;BME280;24384;51.988;4.644;2023-05-09T12:09:33;101107.38;;;14.08;100.00
38630;BME280;24384;51.988;4.644;2023-05-09T12:12:07;101105.66;;;14.07;100.00
38630;BME280;24384;51.988;4.644;2023-05-09T12:14:33;101108.50;;;14.02;100.00
38630;BME280;24384;51.988;4.644;2023-05-09T12:16:58;101105.25;;;13.95;100.00
38630;BME280;24384;51.988;4.644;2023-05-09T12:19:25;101097.31;;;13.95;100.00
38630;BME280;24384;51.988;4.644;2023-05-09T12:21:58;101108.75;;;13.96;100.00
38630;BME280;24384;51.988;4.644;2023-05-09T12:24:28;101097.50;;;14.11;100.00
38630;BME280;24384;51.988;4.644;2023-05-09T12:26:56;101089.03;;;14.03;100.00
38630;BME280;24384;51.988;4.644;2023-05-09T12:29:22;101091.19;;;14.14;100.00
38630;BME280;24384;51.988;4.644;2023-05-09T12:31:49;101084.09;;;14.14;100.00
38630;BME280;24384;51.988;4.644;2023-05-09T12:34:15;101087.09;;;14.27;100.00
38630;BME280;24384;51.988;4.644;2023-05-09T12:36:45;101088.00;;;14.26;100.00
38630;BME280;24384;51.988;4.644;2023-05-09T12:39:18;101087.91;;;14.09;100.00
38630;BME280;24384;51.988;4.644;2023-05-09T12:41:48;101083.47;;;14.28;100.00
38630;BME280;24384;51.988;4.644;2023-05-09T12:44:21;101080.31;;;14.20;100.00
38630;BME280;24384;51.988;4.644;2023-05-09T12:46:59;101078.59;;;14.19;100.00
38630;BME280;24384;51.988;4.644;2023-05-09T12:49:25;101084.56;;;14.24;100.00
38630;BME280;24384;51.988;4.644;2023-05-09T12:51:52;101080.28;;;14.41;100.00
38630;BME280;24384;51.988;4.644;2023-05-09T12:54:22;101080.94;;;14.46;100.00
38630;BME280;24384;51.988;4.644;2023-05-09T12:56:48;101077.75;;;14.38;100.00
38630;BME280;24384;51.988;4.644;2023-05-09T12:59:19;101070.19;;;14.49;100.00
38630;BME280;24384;51.988;4.644;2023-05-09T13:01:56;101075.81;;;14.62;100.00
38630;BME280;24384;51.988;4.644;2023-05-09T13:04:23;101075.69;;;14.65;100.00